sensor_id;sensor_type;location;lat;lon;timestamp;temperature;humidity
70986;DHT22;58645;43.068;25.610;2023-04-24T00:00:11;12.00;70.10
70986;DHT22;58645;43.068;25.610;2023-04-24T00:02:44;12.00;70.40
70986;DHT22;58645;43.068;25.610;2023-04-24T00:05:17;12.00;70.50
70986;DHT22;58645;43.068;25.610;2023-04-24T00:07:43;12.00;70.70
70986;DHT22;58645;43.068;25.610;2023-04-24T00:10:09;12.00;71.00
70986;DHT22;58645;43.068;25.610;2023-04-24T00:12:35;11.90;71.10
70986;DHT22;58645;43.068;25.610;2023-04-24T00:15:02;11.90;71.30
70986;DHT22;58645;43.068;25.610;2023-04-24T00:17:27;11.90;71.40
70986;DHT22;58645;43.068;25.610;2023-04-24T00:19:53;11.90;71.80
70986;DHT22;58645;43.068;25.610;2023-04-24T00:22:27;11.90;71.90
70986;DHT22;58645;43.068;25.610;2023-04-24T00:24:54;11.80;72.00
70986;DHT22;58645;43.068;25.610;2023-04-24T00:27:20;11.90;72.50
70986;DHT22;58645;43.068;25.610;2023-04-24T00:29:46;11.90;72.40
70986;DHT22;58645;43.068;25.610;2023-04-24T00:32:12;11.90;72.80
70986;DHT22;58645;43.068;25.610;2023-04-24T00:34:37;11.80;72.70
70986;DHT22;58645;43.068;25.610;2023-04-24T00:37:03;11.80;73.00
70986;DHT22;58645;43.068;25.610;2023-04-24T00:39:29;11.80;73.20
70986;DHT22;58645;43.068;25.610;2023-04-24T00:41:55;11.80;73.50
70986;DHT22;58645;43.068;25.610;2023-04-24T00:44:22;11.80;73.40
70986;DHT22;58645;43.068;25.610;2023-04-24T00:46:48;11.80;73.30
70986;DHT22;58645;43.068;25.610;2023-04-24T00:49:23;11.70;73.40
70986;DHT22;58645;43.068;25.610;2023-04-24T00:51:50;11.70;73.90
70986;DHT22;58645;43.068;25.610;2023-04-24T00:54:17;11.70;73.90
70986;DHT22;58645;43.068;25.610;2023-04-24T00:56:44;11.70;74.10
70986;DHT22;58645;43.068;25.610;2023-04-24T00:59:12;11.70;74.30
70986;DHT22;58645;43.068;25.610;2023-04-24T01:01:38;11.70;74.30
70986;DHT22;58645;43.068;25.610;2023-04-24T01:04:07;11.70;74.60
70986;DHT22;58645;43.068;25.610;2023-04-24T01:06:40;11.70;74.60
70986;DHT22;58645;43.068;25.610;2023-04-24T01:09:07;11.60;74.60
70986;DHT22;58645;43.068;25.610;2023-04-24T01:11:34;11.60;74.80
70986;DHT22;58645;43.068;25.610;2023-04-24T01:14:00;11.60;75.40
70986;DHT22;58645;43.068;25.610;2023-04-24T01:16:26;11.60;75.50
70986;DHT22;58645;43.068;25.610;2023-04-24T01:18:52;11.50;75.30
70986;DHT22;58645;43.068;25.610;2023-04-24T01:21:18;11.50;75.30
70986;DHT22;58645;43.068;25.610;2023-04-24T01:23:45;11.50;75.70
70986;DHT22;58645;43.068;25.610;2023-04-24T01:26:13;11.50;75.40
70986;DHT22;58645;43.068;25.610;2023-04-24T01:28:39;11.50;75.70
70986;DHT22;58645;43.068;25.610;2023-04-24T01:31:05;11.50;75.70
70986;DHT22;58645;43.068;25.610;2023-04-24T01:33:31;11.50;75.80
70986;DHT22;58645;43.068;25.610;2023-04-24T01:35:57;11.40;76.20
70986;DHT22;58645;43.068;25.610;2023-04-24T01:38:23;11.40;76.30
70986;DHT22;58645;43.068;25.610;2023-04-24T01:40:49;11.40;76.30
70986;DHT22;58645;43.068;25.610;2023-04-24T01:43:16;11.40;76.20
70986;DHT22;58645;43.068;25.610;2023-04-24T01:45:42;11.40;76.10
70986;DHT22;58645;43.068;25.610;2023-04-24T01:48:08;11.40;76.40
70986;DHT22;58645;43.068;25.610;2023-04-24T01:50:34;11.30;76.60
70986;DHT22;58645;43.068;25.610;2023-04-24T01:52:59;11.30;76.70
70986;DHT22;58645;43.068;25.610;2023-04-24T01:55:26;11.30;76.90
70986;DHT22;58645;43.068;25.610;2023-04-24T01:57:52;11.30;76.90
70986;DHT22;58645;43.068;25.610;2023-04-24T02:00:19;11.20;76.90
70986;DHT22;58645;43.068;25.610;2023-04-24T02:02:45;11.20;77.10
70986;DHT22;58645;43.068;25.610;2023-04-24T02:05:11;11.20;77.10
70986;DHT22;58645;43.068;25.610;2023-04-24T02:07:36;11.20;77.20
70986;DHT22;58645;43.068;25.610;2023-04-24T02:10:03;11.30;77.30
70986;DHT22;58645;43.068;25.610;2023-04-24T02:12:29;11.30;77.50
70986;DHT22;58645;43.068;25.610;2023-04-24T02:14:55;11.30;77.40
70986;DHT22;58645;43.068;25.610;2023-04-24T02:17:21;11.30;77.20
70986;DHT22;58645;43.068;25.610;2023-04-24T02:19:48;11.40;77.20
70986;DHT22;58645;43.068;25.610;2023-04-24T02:22:14;11.40;77.30
70986;DHT22;58645;43.068;25.610;2023-04-24T02:24:40;11.40;77.40
70986;DHT22;58645;43.068;25.610;2023-04-24T02:27:05;11.40;77.40
70986;DHT22;58645;43.068;25.610;2023-04-24T02:29:31;11.40;77.40
70986;DHT22;58645;43.068;25.610;2023-04-24T02:31:57;11.40;77.40
70986;DHT22;58645;43.068;25.610;2023-04-24T02:34:23;11.30;77.70
70986;DHT22;58645;43.068;25.610;2023-04-24T02:36:49;11.30;78.00
70986;DHT22;58645;43.068;25.610;2023-04-24T02:39:15;11.20;78.60
70986;DHT22;58645;43.068;25.610;2023-04-24T02:41:44;11.20;79.10
70986;DHT22;58645;43.068;25.610;2023-04-24T02:44:10;11.20;79.20
70986;DHT22;58645;43.068;25.610;2023-04-24T02:46:35;11.10;79.30
70986;DHT22;58645;43.068;25.610;2023-04-24T02:49:01;11.10;79.90
70986;DHT22;58645;43.068;25.610;2023-04-24T02:51:28;11.00;80.10
70986;DHT22;58645;43.068;25.610;2023-04-24T02:53:54;11.00;80.20
70986;DHT22;58645;43.068;25.610;2023-04-24T02:56:19;11.00;80.30
70986;DHT22;58645;43.068;25.610;2023-04-24T02:58:45;11.00;80.30
70986;DHT22;58645;43.068;25.610;2023-04-24T03:01:11;10.90;80.40
70986;DHT22;58645;43.068;25.610;2023-04-24T03:03:38;10.90;80.80
70986;DHT22;58645;43.068;25.610;2023-04-24T03:06:04;10.80;81.00
70986;DHT22;58645;43.068;25.610;2023-04-24T03:08:31;10.80;81.40
70986;DHT22;58645;43.068;25.610;2023-04-24T03:10:57;10.70;82.00
70986;DHT22;58645;43.068;25.610;2023-04-24T03:13:23;10.70;82.60
70986;DHT22;58645;43.068;25.610;2023-04-24T03:15:50;10.60;82.60
70986;DHT22;58645;43.068;25.610;2023-04-24T03:18:15;10.70;82.60
70986;DHT22;58645;43.068;25.610;2023-04-24T03:20:41;10.70;82.80
70986;DHT22;58645;43.068;25.610;2023-04-24T03:23:07;10.70;83.30
70986;DHT22;58645;43.068;25.610;2023-04-24T03:25:33;10.70;83.70
70986;DHT22;58645;43.068;25.610;2023-04-24T03:27:58;10.60;84.40
70986;DHT22;58645;43.068;25.610;2023-04-24T03:30:24;10.70;85.60
70986;DHT22;58645;43.068;25.610;2023-04-24T03:32:50;10.70;85.80
70986;DHT22;58645;43.068;25.610;2023-04-24T03:35:16;10.60;86.40
70986;DHT22;58645;43.068;25.610;2023-04-24T03:37:41;10.60;86.90
70986;DHT22;58645;43.068;25.610;2023-04-24T03:40:08;10.60;86.70
70986;DHT22;58645;43.068;25.610;2023-04-24T03:42:34;10.60;86.70
70986;DHT22;58645;43.068;25.610;2023-04-24T03:44:59;10.60;86.80
70986;DHT22;58645;43.068;25.610;2023-04-24T03:47:25;10.50;86.80
70986;DHT22;58645;43.068;25.610;2023-04-24T03:49:51;10.50;87.20
70986;DHT22;58645;43.068;25.610;2023-04-24T03:52:17;10.60;87.40
70986;DHT22;58645;43.068;25.610;2023-04-24T03:54:43;10.60;87.40
70986;DHT22;58645;43.068;25.610;2023-04-24T03:57:09;10.60;87.40
70986;DHT22;58645;43.068;25.610;2023-04-24T03:59:35;10.70;88.00
70986;DHT22;58645;43.068;25.610;2023-04-24T04:02:00;10.70;87.40
70986;DHT22;58645;43.068;25.610;2023-04-24T04:04:27;10.70;87.00
70986;DHT22;58645;43.068;25.610;2023-04-24T04:06:53;10.80;87.00
70986;DHT22;58645;43.068;25.610;2023-04-24T04:09:19;10.90;86.80
70986;DHT22;58645;43.068;25.610;2023-04-24T04:11:44;11.00;86.10
70986;DHT22;58645;43.068;25.610;2023-04-24T04:14:10;11.00;86.00
70986;DHT22;58645;43.068;25.610;2023-04-24T04:16:36;11.20;85.60
70986;DHT22;58645;43.068;25.610;2023-04-24T04:19:02;11.30;85.40
70986;DHT22;58645;43.068;25.610;2023-04-24T04:21:29;11.40;85.70
70986;DHT22;58645;43.068;25.610;2023-04-24T04:23:56;11.50;85.80
70986;DHT22;58645;43.068;25.610;2023-04-24T04:26:22;11.60;84.70
70986;DHT22;58645;43.068;25.610;2023-04-24T04:28:53;11.70;83.90
70986;DHT22;58645;43.068;25.610;2023-04-24T04:31:20;11.90;83.50
70986;DHT22;58645;43.068;25.610;2023-04-24T04:33:46;12.10;82.80
70986;DHT22;58645;43.068;25.610;2023-04-24T04:36:12;12.20;82.30
70986;DHT22;58645;43.068;25.610;2023-04-24T04:38:38;12.30;81.50
70986;DHT22;58645;43.068;25.610;2023-04-24T04:41:04;12.60;81.30
70986;DHT22;58645;43.068;25.610;2023-04-24T04:43:29;12.70;80.60
70986;DHT22;58645;43.068;25.610;2023-04-24T04:45:58;12.80;80.00
70986;DHT22;58645;43.068;25.610;2023-04-24T04:48:23;12.90;79.70
70986;DHT22;58645;43.068;25.610;2023-04-24T04:50:55;12.90;78.80
70986;DHT22;58645;43.068;25.610;2023-04-24T04:53:21;12.90;79.20
70986;DHT22;58645;43.068;25.610;2023-04-24T04:55:49;12.90;79.40
70986;DHT22;58645;43.068;25.610;2023-04-24T04:58:17;13.20;78.70
70986;DHT22;58645;43.068;25.610;2023-04-24T05:00:46;13.40;78.50
70986;DHT22;58645;43.068;25.610;2023-04-24T05:03:44;13.40;76.70
70986;DHT22;58645;43.068;25.610;2023-04-24T05:06:13;13.70;75.70
70986;DHT22;58645;43.068;25.610;2023-04-24T05:08:47;13.50;74.70
70986;DHT22;58645;43.068;25.610;2023-04-24T05:11:14;14.20;74.10
70986;DHT22;58645;43.068;25.610;2023-04-24T05:13:49;14.50;72.20
70986;DHT22;58645;43.068;25.610;2023-04-24T05:16:33;15.00;72.30
70986;DHT22;58645;43.068;25.610;2023-04-24T05:19:05;15.70;68.80
70986;DHT22;58645;43.068;25.610;2023-04-24T05:21:31;16.00;67.60
70986;DHT22;58645;43.068;25.610;2023-04-24T05:23:57;16.40;66.50
70986;DHT22;58645;43.068;25.610;2023-04-24T05:26:23;16.60;64.90
70986;DHT22;58645;43.068;25.610;2023-04-24T05:28:50;16.90;65.50
70986;DHT22;58645;43.068;25.610;2023-04-24T05:31:17;17.30;62.70
70986;DHT22;58645;43.068;25.610;2023-04-24T05:33:43;17.80;61.80
70986;DHT22;58645;43.068;25.610;2023-04-24T05:36:09;18.10;61.00
70986;DHT22;58645;43.068;25.610;2023-04-24T05:38:41;18.80;59.30
70986;DHT22;58645;43.068;25.610;2023-04-24T05:41:12;19.10;56.90
70986;DHT22;58645;43.068;25.610;2023-04-24T05:43:50;19.30;56.40
70986;DHT22;58645;43.068;25.610;2023-04-24T05:46:20;19.30;55.50
70986;DHT22;58645;43.068;25.610;2023-04-24T05:49:04;19.70;54.20
70986;DHT22;58645;43.068;25.610;2023-04-24T05:51:30;20.10;53.40
70986;DHT22;58645;43.068;25.610;2023-04-24T05:53:57;20.80;52.70
70986;DHT22;58645;43.068;25.610;2023-04-24T05:56:23;20.80;51.10
70986;DHT22;58645;43.068;25.610;2023-04-24T05:58:49;21.00;51.30
70986;DHT22;58645;43.068;25.610;2023-04-24T06:01:15;20.80;51.50
70986;DHT22;58645;43.068;25.610;2023-04-24T06:03:44;20.60;52.40
70986;DHT22;58645;43.068;25.610;2023-04-24T06:06:13;20.60;52.00
70986;DHT22;58645;43.068;25.610;2023-04-24T06:08:47;20.30;52.30
70986;DHT22;58645;43.068;25.610;2023-04-24T06:11:13;20.00;52.80
70986;DHT22;58645;43.068;25.610;2023-04-24T06:13:39;20.00;53.20
70986;DHT22;58645;43.068;25.610;2023-04-24T06:16:05;19.80;54.30
70986;DHT22;58645;43.068;25.610;2023-04-24T06:18:31;20.50;53.30
70986;DHT22;58645;43.068;25.610;2023-04-24T06:20:57;21.00;51.90
70986;DHT22;58645;43.068;25.610;2023-04-24T06:23:29;21.30;51.00
70986;DHT22;58645;43.068;25.610;2023-04-24T06:25:55;21.60;50.70
70986;DHT22;58645;43.068;25.610;2023-04-24T06:28:20;22.70;48.70
70986;DHT22;58645;43.068;25.610;2023-04-24T06:30:46;23.00;47.50
70986;DHT22;58645;43.068;25.610;2023-04-24T06:33:26;23.30;46.50
70986;DHT22;58645;43.068;25.610;2023-04-24T06:35:52;23.50;46.20
70986;DHT22;58645;43.068;25.610;2023-04-24T06:38:18;23.90;45.40
70986;DHT22;58645;43.068;25.610;2023-04-24T06:41:06;24.70;44.20
70986;DHT22;58645;43.068;25.610;2023-04-24T06:43:32;25.20;42.90
70986;DHT22;58645;43.068;25.610;2023-04-24T06:45:59;25.40;41.00
70986;DHT22;58645;43.068;25.610;2023-04-24T06:48:25;25.20;40.70
70986;DHT22;58645;43.068;25.610;2023-04-24T06:50:51;25.60;39.90
70986;DHT22;58645;43.068;25.610;2023-04-24T06:53:17;26.00;40.30
70986;DHT22;58645;43.068;25.610;2023-04-24T06:55:43;26.50;38.80
70986;DHT22;58645;43.068;25.610;2023-04-24T06:58:11;26.40;39.10
70986;DHT22;58645;43.068;25.610;2023-04-24T07:00:38;26.30;38.20
70986;DHT22;58645;43.068;25.610;2023-04-24T07:03:22;25.50;39.10
70986;DHT22;58645;43.068;25.610;2023-04-24T07:05:48;25.60;39.90
70986;DHT22;58645;43.068;25.610;2023-04-24T07:08:14;26.00;38.80
70986;DHT22;58645;43.068;25.610;2023-04-24T07:10:43;26.10;38.00
70986;DHT22;58645;43.068;25.610;2023-04-24T07:13:11;26.30;38.20
70986;DHT22;58645;43.068;25.610;2023-04-24T07:15:37;27.00;37.30
70986;DHT22;58645;43.068;25.610;2023-04-24T07:18:03;27.90;36.20
70986;DHT22;58645;43.068;25.610;2023-04-24T07:20:29;27.90;34.80
70986;DHT22;58645;43.068;25.610;2023-04-24T07:22:55;27.20;36.60
70986;DHT22;58645;43.068;25.610;2023-04-24T07:25:21;27.70;35.00
70986;DHT22;58645;43.068;25.610;2023-04-24T07:27:46;27.00;36.00
70986;DHT22;58645;43.068;25.610;2023-04-24T07:30:13;26.00;37.80
70986;DHT22;58645;43.068;25.610;2023-04-24T07:32:39;25.40;38.20
70986;DHT22;58645;43.068;25.610;2023-04-24T07:35:05;24.80;40.00
70986;DHT22;58645;43.068;25.610;2023-04-24T07:37:32;24.50;40.50
70986;DHT22;58645;43.068;25.610;2023-04-24T07:39:58;24.10;42.10
70986;DHT22;58645;43.068;25.610;2023-04-24T07:42:23;24.20;43.20
70986;DHT22;58645;43.068;25.610;2023-04-24T07:44:49;24.10;43.70
70986;DHT22;58645;43.068;25.610;2023-04-24T07:47:16;23.70;43.70
70986;DHT22;58645;43.068;25.610;2023-04-24T07:49:42;23.80;43.80
70986;DHT22;58645;43.068;25.610;2023-04-24T07:52:08;24.20;41.50
70986;DHT22;58645;43.068;25.610;2023-04-24T07:54:38;23.90;42.60
70986;DHT22;58645;43.068;25.610;2023-04-24T07:57:04;23.80;42.30
70986;DHT22;58645;43.068;25.610;2023-04-24T07:59:34;23.40;42.40
70986;DHT22;58645;43.068;25.610;2023-04-24T08:02:00;22.90;43.60
70986;DHT22;58645;43.068;25.610;2023-04-24T08:04:27;22.30;44.70
70986;DHT22;58645;43.068;25.610;2023-04-24T08:06:52;22.00;45.20
70986;DHT22;58645;43.068;25.610;2023-04-24T08:09:18;21.90;45.90
70986;DHT22;58645;43.068;25.610;2023-04-24T08:11:44;21.80;46.10
70986;DHT22;58645;43.068;25.610;2023-04-24T08:14:10;21.50;47.20
70986;DHT22;58645;43.068;25.610;2023-04-24T08:16:49;21.50;47.80
70986;DHT22;58645;43.068;25.610;2023-04-24T08:19:15;21.70;48.00
70986;DHT22;58645;43.068;25.610;2023-04-24T08:21:41;22.00;47.30
70986;DHT22;58645;43.068;25.610;2023-04-24T08:24:09;22.50;45.50
70986;DHT22;58645;43.068;25.610;2023-04-24T08:26:35;22.60;45.20
70986;DHT22;58645;43.068;25.610;2023-04-24T08:32:17;22.60;46.00
70986;DHT22;58645;43.068;25.610;2023-04-24T08:34:43;22.10;44.80
70986;DHT22;58645;43.068;25.610;2023-04-24T08:37:08;22.00;45.80
70986;DHT22;58645;43.068;25.610;2023-04-24T08:39:35;21.80;46.60
70986;DHT22;58645;43.068;25.610;2023-04-24T08:42:01;21.60;46.30
70986;DHT22;58645;43.068;25.610;2023-04-24T08:44:32;21.50;46.50
70986;DHT22;58645;43.068;25.610;2023-04-24T08:46:59;21.40;47.30
70986;DHT22;58645;43.068;25.610;2023-04-24T08:49:27;21.40;47.80
70986;DHT22;58645;43.068;25.610;2023-04-24T08:51:53;21.30;48.00
70986;DHT22;58645;43.068;25.610;2023-04-24T08:54:19;21.20;48.60
70986;DHT22;58645;43.068;25.610;2023-04-24T08:56:48;21.00;49.20
70986;DHT22;58645;43.068;25.610;2023-04-24T08:59:15;21.00;48.90
70986;DHT22;58645;43.068;25.610;2023-04-24T09:01:41;20.80;49.80
70986;DHT22;58645;43.068;25.610;2023-04-24T09:04:09;20.80;50.50
70986;DHT22;58645;43.068;25.610;2023-04-24T09:06:39;20.80;50.50
70986;DHT22;58645;43.068;25.610;2023-04-24T09:09:05;20.80;50.90
70986;DHT22;58645;43.068;25.610;2023-04-24T09:11:32;20.80;50.60
70986;DHT22;58645;43.068;25.610;2023-04-24T09:13:58;21.00;50.70
70986;DHT22;58645;43.068;25.610;2023-04-24T09:16:28;22.10;49.20
70986;DHT22;58645;43.068;25.610;2023-04-24T09:19:00;22.90;47.70
70986;DHT22;58645;43.068;25.610;2023-04-24T09:21:34;23.00;47.00
70986;DHT22;58645;43.068;25.610;2023-04-24T09:24:05;24.20;47.00
70986;DHT22;58645;43.068;25.610;2023-04-24T09:26:48;25.50;43.00
70986;DHT22;58645;43.068;25.610;2023-04-24T09:29:25;25.70;39.80
70986;DHT22;58645;43.068;25.610;2023-04-24T09:32:18;25.30;40.40
70986;DHT22;58645;43.068;25.610;2023-04-24T09:34:47;25.20;41.00
70986;DHT22;58645;43.068;25.610;2023-04-24T09:37:27;24.80;40.10
70986;DHT22;58645;43.068;25.610;2023-04-24T09:40:23;24.80;41.00
70986;DHT22;58645;43.068;25.610;2023-04-24T09:42:54;24.50;39.90
70986;DHT22;58645;43.068;25.610;2023-04-24T09:45:36;24.70;40.20
70986;DHT22;58645;43.068;25.610;2023-04-24T09:48:05;24.60;36.50
70986;DHT22;58645;43.068;25.610;2023-04-24T09:50:34;25.30;35.80
70986;DHT22;58645;43.068;25.610;2023-04-24T09:53:05;25.00;35.40
70986;DHT22;58645;43.068;25.610;2023-04-24T09:55:31;25.40;34.80
70986;DHT22;58645;43.068;25.610;2023-04-24T09:57:58;25.40;35.20
70986;DHT22;58645;43.068;25.610;2023-04-24T10:00:26;25.60;36.20
70986;DHT22;58645;43.068;25.610;2023-04-24T10:02:56;25.40;36.00
70986;DHT22;58645;43.068;25.610;2023-04-24T10:05:33;25.30;36.80
70986;DHT22;58645;43.068;25.610;2023-04-24T10:10:46;24.60;39.20
70986;DHT22;58645;43.068;25.610;2023-04-24T10:13:13;24.50;39.30
70986;DHT22;58645;43.068;25.610;2023-04-24T10:15:41;24.30;39.70
70986;DHT22;58645;43.068;25.610;2023-04-24T10:18:08;23.80;39.80
70986;DHT22;58645;43.068;25.610;2023-04-24T10:20:37;23.50;40.80
70986;DHT22;58645;43.068;25.610;2023-04-24T10:23:06;23.30;41.80
70986;DHT22;58645;43.068;25.610;2023-04-24T10:25:33;23.60;42.50
70986;DHT22;58645;43.068;25.610;2023-04-24T10:28:01;24.00;42.10
70986;DHT22;58645;43.068;25.610;2023-04-24T10:30:34;24.00;41.80
70986;DHT22;58645;43.068;25.610;2023-04-24T10:33:05;24.10;40.50
70986;DHT22;58645;43.068;25.610;2023-04-24T10:35:35;24.40;41.00
70986;DHT22;58645;43.068;25.610;2023-04-24T10:38:11;24.50;41.20
70986;DHT22;58645;43.068;25.610;2023-04-24T10:40:37;24.40;40.10
70986;DHT22;58645;43.068;25.610;2023-04-24T10:43:07;24.60;38.60
70986;DHT22;58645;43.068;25.610;2023-04-24T10:45:36;24.70;39.50
70986;DHT22;58645;43.068;25.610;2023-04-24T10:48:09;24.60;40.30
70986;DHT22;58645;43.068;25.610;2023-04-24T10:50:52;24.50;40.00
70986;DHT22;58645;43.068;25.610;2023-04-24T10:53:23;24.40;40.90
70986;DHT22;58645;43.068;25.610;2023-04-24T10:55:50;24.10;40.90
70986;DHT22;58645;43.068;25.610;2023-04-24T10:58:21;24.10;41.50
70986;DHT22;58645;43.068;25.610;2023-04-24T11:00:56;23.90;40.70
70986;DHT22;58645;43.068;25.610;2023-04-24T11:03:33;23.60;42.30
70986;DHT22;58645;43.068;25.610;2023-04-24T11:06:07;23.40;43.50
70986;DHT22;58645;43.068;25.610;2023-04-24T11:08:43;23.20;42.70
70986;DHT22;58645;43.068;25.610;2023-04-24T11:11:13;23.30;42.20
70986;DHT22;58645;43.068;25.610;2023-04-24T11:16:30;23.40;42.30
70986;DHT22;58645;43.068;25.610;2023-04-24T11:19:03;23.60;42.20
70986;DHT22;58645;43.068;25.610;2023-04-24T11:21:57;24.00;41.30
70986;DHT22;58645;43.068;25.610;2023-04-24T11:24:35;24.50;40.50
70986;DHT22;58645;43.068;25.610;2023-04-24T11:27:12;24.80;41.00
70986;DHT22;58645;43.068;25.610;2023-04-24T11:32:25;25.60;37.90
70986;DHT22;58645;43.068;25.610;2023-04-24T11:35:35;26.00;37.90
70986;DHT22;58645;43.068;25.610;2023-04-24T11:37:46;26.30;36.90
70986;DHT22;58645;43.068;25.610;2023-04-24T11:40:15;26.10;36.00
70986;DHT22;58645;43.068;25.610;2023-04-24T11:42:46;26.00;36.30
70986;DHT22;58645;43.068;25.610;2023-04-24T11:45:14;26.60;34.90
70986;DHT22;58645;43.068;25.610;2023-04-24T11:47:41;26.70;34.40
70986;DHT22;58645;43.068;25.610;2023-04-24T11:50:10;26.30;36.80
70986;DHT22;58645;43.068;25.610;2023-04-24T11:52:45;26.20;35.70
70986;DHT22;58645;43.068;25.610;2023-04-24T11:57:39;25.70;36.70
70986;DHT22;58645;43.068;25.610;2023-04-24T12:00:20;25.50;37.70
70986;DHT22;58645;43.068;25.610;2023-04-24T12:02:49;24.70;39.00
70986;DHT22;58645;43.068;25.610;2023-04-24T12:05:26;24.50;39.50
70986;DHT22;58645;43.068;25.610;2023-04-24T12:07:53;24.30;39.80
70986;DHT22;58645;43.068;25.610;2023-04-24T12:10:23;24.20;39.90
70986;DHT22;58645;43.068;25.610;2023-04-24T12:12:50;24.20;40.20
70986;DHT22;58645;43.068;25.610;2023-04-24T12:15:18;24.00;41.80
70986;DHT22;58645;43.068;25.610;2023-04-24T12:17:44;24.00;40.80
70986;DHT22;58645;43.068;25.610;2023-04-24T12:20:10;24.00;40.80
70986;DHT22;58645;43.068;25.610;2023-04-24T12:22:51;24.70;40.90
70986;DHT22;58645;43.068;25.610;2023-04-24T12:25:21;24.50;40.60
70986;DHT22;58645;43.068;25.610;2023-04-24T12:27:53;24.90;39.40
70986;DHT22;58645;43.068;25.610;2023-04-24T12:30:19;25.20;39.50
70986;DHT22;58645;43.068;25.610;2023-04-24T12:32:49;25.30;39.10
70986;DHT22;58645;43.068;25.610;2023-04-24T12:35:23;25.70;39.30
70986;DHT22;58645;43.068;25.610;2023-04-24T12:37:49;25.30;39.40
70986;DHT22;58645;43.068;25.610;2023-04-24T12:40:17;24.60;40.50
70986;DHT22;58645;43.068;25.610;2023-04-24T12:42:49;24.20;40.60
70986;DHT22;58645;43.068;25.610;2023-04-24T12:45:16;24.20;41.40
70986;DHT22;58645;43.068;25.610;2023-04-24T12:47:43;24.00;40.00
70986;DHT22;58645;43.068;25.610;2023-04-24T12:50:11;23.90;40.00
70986;DHT22;58645;43.068;25.610;2023-04-24T12:52:41;23.90;40.20
70986;DHT22;58645;43.068;25.610;2023-04-24T12:55:07;23.90;39.10
70986;DHT22;58645;43.068;25.610;2023-04-24T12:57:36;24.20;38.90
70986;DHT22;58645;43.068;25.610;2023-04-24T13:00:03;24.60;37.90
70986;DHT22;58645;43.068;25.610;2023-04-24T13:02:31;24.30;37.80
70986;DHT22;58645;43.068;25.610;2023-04-24T13:04:57;23.90;38.70
70986;DHT22;58645;43.068;25.610;2023-04-24T13:07:23;23.60;39.40
70986;DHT22;58645;43.068;25.610;2023-04-24T13:09:49;23.30;39.40
70986;DHT22;58645;43.068;25.610;2023-04-24T13:12:15;23.10;39.20
70986;DHT22;58645;43.068;25.610;2023-04-24T13:14:41;23.20;38.40
70986;DHT22;58645;43.068;25.610;2023-04-24T13:17:10;23.50;39.20
70986;DHT22;58645;43.068;25.610;2023-04-24T13:19:38;23.60;39.10
70986;DHT22;58645;43.068;25.610;2023-04-24T13:22:04;23.60;39.20
70986;DHT22;58645;43.068;25.610;2023-04-24T13:24:31;23.30;40.30
70986;DHT22;58645;43.068;25.610;2023-04-24T13:26:57;23.00;44.20
70986;DHT22;58645;43.068;25.610;2023-04-24T13:29:24;22.50;46.10
70986;DHT22;58645;43.068;25.610;2023-04-24T13:31:51;22.30;47.20
70986;DHT22;58645;43.068;25.610;2023-04-24T13:34:17;22.40;47.50
70986;DHT22;58645;43.068;25.610;2023-04-24T13:36:43;22.30;48.00
70986;DHT22;58645;43.068;25.610;2023-04-24T13:39:09;22.10;48.40
70986;DHT22;58645;43.068;25.610;2023-04-24T13:41:36;21.90;49.00
70986;DHT22;58645;43.068;25.610;2023-04-24T13:44:05;21.70;48.80
70986;DHT22;58645;43.068;25.610;2023-04-24T13:46:41;21.40;49.40
70986;DHT22;58645;43.068;25.610;2023-04-24T13:49:09;21.20;49.70
70986;DHT22;58645;43.068;25.610;2023-04-24T13:51:35;21.20;49.90
70986;DHT22;58645;43.068;25.610;2023-04-24T13:54:01;21.20;50.30
70986;DHT22;58645;43.068;25.610;2023-04-24T13:56:27;21.10;50.00
70986;DHT22;58645;43.068;25.610;2023-04-24T13:58:53;21.20;50.20
70986;DHT22;58645;43.068;25.610;2023-04-24T14:01:21;21.30;50.60
70986;DHT22;58645;43.068;25.610;2023-04-24T14:03:53;21.20;50.00
70986;DHT22;58645;43.068;25.610;2023-04-24T14:06:19;21.20;50.00
70986;DHT22;58645;43.068;25.610;2023-04-24T14:08:46;21.10;50.20
70986;DHT22;58645;43.068;25.610;2023-04-24T14:11:12;21.10;50.10
70986;DHT22;58645;43.068;25.610;2023-04-24T14:13:38;21.00;49.70
70986;DHT22;58645;43.068;25.610;2023-04-24T14:16:04;21.00;49.70
70986;DHT22;58645;43.068;25.610;2023-04-24T14:18:30;21.00;49.50
70986;DHT22;58645;43.068;25.610;2023-04-24T14:20:56;21.10;49.70
70986;DHT22;58645;43.068;25.610;2023-04-24T14:23:21;21.10;49.00
70986;DHT22;58645;43.068;25.610;2023-04-24T14:25:47;21.00;49.30
70986;DHT22;58645;43.068;25.610;2023-04-24T14:28:17;21.00;49.40
70986;DHT22;58645;43.068;25.610;2023-04-24T14:30:43;21.00;49.70
70986;DHT22;58645;43.068;25.610;2023-04-24T14:33:09;21.10;50.00
70986;DHT22;58645;43.068;25.610;2023-04-24T14:35:35;21.10;49.10
70986;DHT22;58645;43.068;25.610;2023-04-24T14:38:01;21.10;50.50
70986;DHT22;58645;43.068;25.610;2023-04-24T14:40:27;21.10;50.60
70986;DHT22;58645;43.068;25.610;2023-04-24T14:42:53;20.90;51.00
70986;DHT22;58645;43.068;25.610;2023-04-24T14:45:19;20.80;51.70
70986;DHT22;58645;43.068;25.610;2023-04-24T14:47:45;20.80;52.40
70986;DHT22;58645;43.068;25.610;2023-04-24T14:50:11;20.60;52.50
70986;DHT22;58645;43.068;25.610;2023-04-24T14:52:38;20.50;53.20
70986;DHT22;58645;43.068;25.610;2023-04-24T14:55:04;20.30;53.50
70986;DHT22;58645;43.068;25.610;2023-04-24T14:57:30;20.30;54.20
70986;DHT22;58645;43.068;25.610;2023-04-24T14:59:56;20.10;54.40
70986;DHT22;58645;43.068;25.610;2023-04-24T15:02:21;20.10;54.40
70986;DHT22;58645;43.068;25.610;2023-04-24T15:04:47;20.00;54.60
70986;DHT22;58645;43.068;25.610;2023-04-24T15:07:13;19.90;55.10
70986;DHT22;58645;43.068;25.610;2023-04-24T15:09:38;19.80;55.50
70986;DHT22;58645;43.068;25.610;2023-04-24T15:12:05;19.70;55.80
70986;DHT22;58645;43.068;25.610;2023-04-24T15:14:30;19.60;56.20
70986;DHT22;58645;43.068;25.610;2023-04-24T15:16:56;19.60;56.20
70986;DHT22;58645;43.068;25.610;2023-04-24T15:19:22;19.60;56.10
70986;DHT22;58645;43.068;25.610;2023-04-24T15:21:48;19.60;56.30
70986;DHT22;58645;43.068;25.610;2023-04-24T15:24:14;19.60;56.40
70986;DHT22;58645;43.068;25.610;2023-04-24T15:26:39;19.50;56.80
70986;DHT22;58645;43.068;25.610;2023-04-24T15:29:05;19.40;56.90
70986;DHT22;58645;43.068;25.610;2023-04-24T15:31:31;19.40;57.30
70986;DHT22;58645;43.068;25.610;2023-04-24T15:33:57;19.30;57.40